createdAt,value
2022-11-22T00:00:22.742Z,95.62
2022-11-22T00:02:49.271Z,95.58
2022-11-22T00:05:15.891Z,95.67
2022-11-22T00:07:42.547Z,95.80
2022-11-22T00:10:11.438Z,95.63
2022-11-22T00:12:38.611Z,95.62
2022-11-22T00:15:06.207Z,95.65
2022-11-22T00:17:33.381Z,95.62
2022-11-22T00:20:00.354Z,95.36
2022-11-22T00:22:27.060Z,95.16
2022-11-22T00:24:53.866Z,95.14
2022-11-22T00:27:20.688Z,95.04
2022-11-22T00:29:47.251Z,94.96
2022-11-22T00:32:14.373Z,95.03
2022-11-22T00:34:41.023Z,94.68
2022-11-22T00:37:07.901Z,94.81
2022-11-22T00:39:34.842Z,94.78
2022-11-22T00:42:01.901Z,94.73
2022-11-22T00:44:28.484Z,94.72
2022-11-22T00:46:55.147Z,94.63
2022-11-22T00:49:21.789Z,94.40
2022-11-22T00:51:48.354Z,94.68
2022-11-22T00:54:15.700Z,94.61
2022-11-22T00:56:42.816Z,94.88
2022-11-22T00:59:09.329Z,94.92
2022-11-22T01:01:36.007Z,95.01
2022-11-22T01:04:02.941Z,94.57
2022-11-22T01:06:29.601Z,94.54
2022-11-22T01:08:58.029Z,94.53
2022-11-22T01:11:24.870Z,94.68
2022-11-22T01:13:51.521Z,94.43
2022-11-22T01:16:18.196Z,94.43
2022-11-22T01:18:45.843Z,94.54
2022-11-22T01:21:12.398Z,94.67
2022-11-22T01:23:39.061Z,94.46
2022-11-22T01:26:09.328Z,94.56
2022-11-22T01:28:36.868Z,94.57
2022-11-22T01:31:04.857Z,94.71
2022-11-22T01:33:31.491Z,94.51
2022-11-22T01:35:58.466Z,94.56
2022-11-22T01:38:25.697Z,94.86
2022-11-22T01:40:53.314Z,94.88
2022-11-22T01:43:25.387Z,94.83
2022-11-22T01:46:03.452Z,94.73
2022-11-22T01:48:42.425Z,94.84
2022-11-22T01:51:25.969Z,94.97
2022-11-22T01:53:56.575Z,94.81
2022-11-22T01:56:24.503Z,94.77
2022-11-22T01:58:56.468Z,94.86
2022-11-22T02:01:23.122Z,94.95
2022-11-22T02:03:51.719Z,95.09
2022-11-22T02:06:19.625Z,95.09
2022-11-22T02:09:12.638Z,95.11
2022-11-22T02:11:46.795Z,95.16
2022-11-22T02:14:16.651Z,95.11
2022-11-22T02:16:44.023Z,95.19
2022-11-22T02:19:21.351Z,95.30
2022-11-22T02:21:54.590Z,95.54
2022-11-22T02:24:31.833Z,95.43
2022-11-22T02:26:58.759Z,95.31
2022-11-22T02:29:25.508Z,95.32
2022-11-22T02:31:52.204Z,94.96
2022-11-22T02:34:18.783Z,94.90
2022-11-22T02:36:50.028Z,95.03
2022-11-22T02:39:21.693Z,95.03
2022-11-22T02:41:49.794Z,95.06
2022-11-22T02:44:17.082Z,95.22
2022-11-22T02:46:54.437Z,95.45
2022-11-22T02:49:23.694Z,95.64
2022-11-22T02:51:51.771Z,95.53
2022-11-22T02:54:18.958Z,95.48
2022-11-22T02:56:45.931Z,95.46
2022-11-22T02:59:12.627Z,95.63
2022-11-22T03:01:39.750Z,95.53
2022-11-22T03:04:06.355Z,95.67
2022-11-22T03:06:32.947Z,95.45
2022-11-22T03:08:59.506Z,95.33
2022-11-22T03:11:26.514Z,95.25
2022-11-22T03:13:53.125Z,95.40
2022-11-22T03:16:19.767Z,95.64
2022-11-22T03:18:48.735Z,95.42
2022-11-22T03:21:15.349Z,95.13
2022-11-22T03:23:41.905Z,95.16
2022-11-22T03:26:10.436Z,95.32
2022-11-22T03:28:36.936Z,95.39
2022-11-22T03:31:07.597Z,95.09
2022-11-22T03:33:35.256Z,95.07
2022-11-22T03:36:02.509Z,95.42
2022-11-22T03:38:29.300Z,95.44
2022-11-22T03:40:56.058Z,95.46
2022-11-22T03:43:22.760Z,95.55
2022-11-22T03:45:49.723Z,95.66
2022-11-22T03:48:16.388Z,95.67
2022-11-22T03:50:43.311Z,95.70
2022-11-22T03:53:10.581Z,95.95
2022-11-22T03:55:37.166Z,95.83
2022-11-22T03:58:03.985Z,95.76
2022-11-22T04:00:31.401Z,95.72
2022-11-22T04:02:57.982Z,95.65
2022-11-22T04:05:24.951Z,95.88
2022-11-22T04:07:57.107Z,95.81
2022-11-22T04:10:24.372Z,95.77
2022-11-22T04:12:51.161Z,95.81
2022-11-22T04:15:17.880Z,95.60
2022-11-22T04:17:45.832Z,95.62
2022-11-22T04:20:41.932Z,95.65
2022-11-22T04:23:12.174Z,95.79
2022-11-22T04:25:41.264Z,95.92
2022-11-22T04:28:09.718Z,95.80
2022-11-22T04:30:54.497Z,95.75
2022-11-22T04:33:21.938Z,95.74
2022-11-22T04:35:49.336Z,95.71
2022-11-22T04:38:17.925Z,95.97
2022-11-22T04:40:45.700Z,95.81
2022-11-22T04:43:49.330Z,95.49
2022-11-22T04:46:16.334Z,95.81
2022-11-22T04:48:43.195Z,95.73
2022-11-22T04:51:32.396Z,95.65
2022-11-22T04:53:58.972Z,95.75
2022-11-22T04:56:25.670Z,95.75
2022-11-22T04:58:52.342Z,95.75
2022-11-22T05:01:19.053Z,95.73
2022-11-22T05:03:46.091Z,95.79
2022-11-22T05:06:13.337Z,95.79
2022-11-22T05:08:40.380Z,95.69
2022-11-22T05:11:07.065Z,95.79
2022-11-22T05:13:39.170Z,95.99
2022-11-22T05:16:11.577Z,95.68
2022-11-22T05:18:38.719Z,95.62
2022-11-22T05:21:06.580Z,95.80
2022-11-22T05:23:52.470Z,95.76
2022-11-22T05:26:19.412Z,95.87
2022-11-22T05:28:46.215Z,95.95
2022-11-22T05:31:16.435Z,95.99
2022-11-22T05:33:45.443Z,96.00
2022-11-22T05:36:13.140Z,96.04
2022-11-22T05:38:39.940Z,96.06
2022-11-22T05:41:08.867Z,96.04
2022-11-22T05:43:35.981Z,96.09
2022-11-22T05:46:17.214Z,96.26
2022-11-22T05:48:47.849Z,96.24
2022-11-22T05:51:16.963Z,96.09
2022-11-22T05:53:44.657Z,96.08
2022-11-22T05:56:13.962Z,96.19
2022-11-22T05:58:41.499Z,96.08
2022-11-22T06:01:11.152Z,96.17
2022-11-22T06:03:38.075Z,96.06
2022-11-22T06:06:06.391Z,96.11
2022-11-22T06:08:34.555Z,96.21
2022-11-22T06:11:25.740Z,96.30
2022-11-22T06:13:55.031Z,96.13
2022-11-22T06:16:22.440Z,96.11
2022-11-22T06:18:50.103Z,96.32
2022-11-22T06:21:19.741Z,96.22
2022-11-22T06:23:46.852Z,96.00
2022-11-22T06:26:16.818Z,96.12
2022-11-22T06:28:45.969Z,96.02
2022-11-22T06:31:18.597Z,96.06
2022-11-22T06:33:45.388Z,96.04
2022-11-22T06:36:23.752Z,96.12
2022-11-22T06:38:51.212Z,96.13
2022-11-22T06:41:26.201Z,96.17
2022-11-22T06:43:56.054Z,95.85
2022-11-22T06:46:24.712Z,95.92
2022-11-22T06:48:52.014Z,96.00
2022-11-22T06:51:19.803Z,95.99
2022-11-22T06:53:49.016Z,95.96
2022-11-22T06:56:24.889Z,95.93
2022-11-22T06:58:52.493Z,95.95
2022-11-22T07:01:26.320Z,95.88
2022-11-22T07:03:58.167Z,95.91
2022-11-22T07:06:37.112Z,95.90
2022-11-22T07:09:09.206Z,95.61
2022-11-22T07:11:36.523Z,95.72
2022-11-22T07:14:08.768Z,95.92
2022-11-22T07:16:38.463Z,95.92
2022-11-22T07:19:06.212Z,95.62
2022-11-22T07:21:33.415Z,95.74
2022-11-22T07:23:59.932Z,95.86
2022-11-22T07:26:27.780Z,95.64
2022-11-22T07:28:54.484Z,95.49
2022-11-22T07:31:21.385Z,95.59
2022-11-22T07:33:48.521Z,95.82
2022-11-22T07:36:18.044Z,95.60
2022-11-22T07:38:45.520Z,95.24
2022-11-22T07:41:12.669Z,95.19
2022-11-22T07:43:39.624Z,95.21
2022-11-22T07:46:11.489Z,95.09
2022-11-22T07:48:38.129Z,95.08
2022-11-22T07:51:06.660Z,94.95
2022-11-22T07:53:34.852Z,95.14
2022-11-22T07:56:05.582Z,95.05
2022-11-22T07:58:33.945Z,94.89
2022-11-22T08:01:30.071Z,94.83
2022-11-22T08:03:56.694Z,94.63
2022-11-22T08:06:23.745Z,94.57
2022-11-22T08:08:51.026Z,94.48
2022-11-22T08:11:17.678Z,94.56
2022-11-22T08:13:44.664Z,94.34
2022-11-22T08:16:13.854Z,94.50
2022-11-22T08:18:41.585Z,94.35
2022-11-22T08:21:10.948Z,94.36
2022-11-22T08:23:38.600Z,94.34
2022-11-22T08:26:07.040Z,94.32
2022-11-22T08:28:33.960Z,94.33
2022-11-22T08:31:08.358Z,94.42
2022-11-22T08:33:35.208Z,94.26
2022-11-22T08:36:02.482Z,94.42
2022-11-22T08:38:29.223Z,94.48
2022-11-22T08:40:56.320Z,94.21
2022-11-22T08:43:22.998Z,94.31
2022-11-22T08:45:54.373Z,94.31
2022-11-22T08:48:22.510Z,94.30
2022-11-22T08:50:51.235Z,94.05
2022-11-22T08:53:17.792Z,94.16
2022-11-22T08:55:44.739Z,94.08
2022-11-22T08:58:11.556Z,94.19
2022-11-22T09:00:38.113Z,94.18
2022-11-22T09:03:04.796Z,94.05
2022-11-22T09:05:32.499Z,93.96
2022-11-22T09:10:46.314Z,94.00
2022-11-22T09:13:12.942Z,94.05
2022-11-22T09:15:39.621Z,94.47
2022-11-22T09:18:06.266Z,94.09
2022-11-22T09:20:32.898Z,94.00
2022-11-22T09:23:01.284Z,93.78
2022-11-22T09:25:27.915Z,93.68
2022-11-22T09:27:54.475Z,93.49
2022-11-22T09:30:21.619Z,93.59
2022-11-22T09:32:48.238Z,93.82
2022-11-22T09:35:17.103Z,93.92
2022-11-22T09:37:43.764Z,94.04
2022-11-22T09:40:10.801Z,93.99
2022-11-22T09:43:06.983Z,94.29
2022-11-22T09:46:00.281Z,94.21
2022-11-22T09:48:42.068Z,94.27
2022-11-22T09:51:23.209Z,94.61
2022-11-22T09:54:12.808Z,94.21
2022-11-22T09:56:40.527Z,94.15
2022-11-22T09:59:18.465Z,94.23
2022-11-22T10:01:52.881Z,94.00
2022-11-22T10:04:50.835Z,93.73
2022-11-22T10:07:40.657Z,93.94
2022-11-22T10:10:13.307Z,93.79
2022-11-22T10:13:06.449Z,94.08
2022-11-22T10:15:51.187Z,94.16
2022-11-22T10:18:56.971Z,93.94
2022-11-22T10:21:23.558Z,93.60
2022-11-22T10:23:50.188Z,94.14
2022-11-22T10:26:32.544Z,94.26
2022-11-22T10:29:01.779Z,94.22
2022-11-22T10:31:33.258Z,94.29
2022-11-22T10:34:30.867Z,94.32
2022-11-22T10:37:10.976Z,94.54
2022-11-22T10:40:19.172Z,94.27
2022-11-22T10:43:15.605Z,94.24
2022-11-22T10:45:47.122Z,94.16
2022-11-22T10:48:28.102Z,94.21
2022-11-22T10:51:09.599Z,94.11
2022-11-22T10:54:03.599Z,94.08
2022-11-22T10:56:43.460Z,94.20
2022-11-22T10:59:42.190Z,94.37
2022-11-22T11:02:27.534Z,94.02
2022-11-22T11:04:56.165Z,94.17
2022-11-22T11:07:24.519Z,94.26
2022-11-22T11:10:20.298Z,94.10
2022-11-22T11:12:50.982Z,94.07
2022-11-22T11:15:31.395Z,94.04
2022-11-22T11:18:01.736Z,94.18
2022-11-22T11:20:41.174Z,94.14
2022-11-22T11:23:17.067Z,94.20
2022-11-22T11:25:48.816Z,93.80
2022-11-22T11:28:24.835Z,93.86
2022-11-22T11:30:59.568Z,94.18
2022-11-22T11:33:32.991Z,93.88
2022-11-22T11:36:07.047Z,93.93
2022-11-22T11:38:35.109Z,93.80
2022-11-22T11:41:29.347Z,93.82
2022-11-22T11:43:58.299Z,94.06
2022-11-22T11:46:27.344Z,94.15
2022-11-22T11:49:13.313Z,94.06
2022-11-22T11:51:43.103Z,94.08
2022-11-22T11:54:14.152Z,94.09
2022-11-22T11:56:58.169Z,93.87
2022-11-22T11:59:45.207Z,93.75
2022-11-22T12:02:35.696Z,94.02
2022-11-22T12:05:24.384Z,93.98
2022-11-22T12:07:51.191Z,93.89
2022-11-22T12:10:31.743Z,94.08
2022-11-22T12:13:05.016Z,94.16
2022-11-22T12:15:56.073Z,94.23
2022-11-22T12:18:48.613Z,94.02
2022-11-22T12:21:43.459Z,94.01
2022-11-22T12:27:04.285Z,94.37
2022-11-22T12:29:35.102Z,94.50
2022-11-22T12:32:07.786Z,94.19
2022-11-22T12:34:40.458Z,94.09
2022-11-22T12:37:19.772Z,94.34
2022-11-22T12:39:48.796Z,94.26
2022-11-22T12:42:23.239Z,94.40
2022-11-22T12:45:01.725Z,94.57
2022-11-22T12:47:32.742Z,94.51
2022-11-22T12:48:23.410Z,94.18
2022-11-22T12:50:17.364Z,94.25
2022-11-22T12:52:50.940Z,94.33
2022-11-22T12:55:24.864Z,94.74
2022-11-22T12:58:10.001Z,94.34
2022-11-22T13:00:44.650Z,94.31
2022-11-22T13:03:15.924Z,94.51
2022-11-22T13:05:54.917Z,94.37
2022-11-22T13:08:33.097Z,94.34
2022-11-22T13:11:09.355Z,94.71
2022-11-22T13:13:42.253Z,94.41
2022-11-22T13:16:11.372Z,94.40
2022-11-22T13:18:46.500Z,94.57
2022-11-22T13:21:28.260Z,94.30
2022-11-22T13:24:02.213Z,94.45
2022-11-22T13:26:51.962Z,94.31
2022-11-22T13:29:27.183Z,94.47
2022-11-22T13:32:12.007Z,94.58
2022-11-22T13:34:59.317Z,94.38
2022-11-22T13:37:28.521Z,94.50
2022-11-22T13:39:55.416Z,94.66
2022-11-22T13:42:27.682Z,94.60
2022-11-22T13:44:54.172Z,94.49
2022-11-22T13:47:23.781Z,94.48
2022-11-22T13:49:51.668Z,94.44
2022-11-22T13:52:18.244Z,94.63
2022-11-22T13:54:47.956Z,94.94
2022-11-22T13:57:34.962Z,95.01
2022-11-22T14:00:16.761Z,94.81
2022-11-22T14:03:14.837Z,94.76
2022-11-22T14:05:48.455Z,94.87
2022-11-22T14:08:35.429Z,94.97
2022-11-22T14:11:07.201Z,94.92
2022-11-22T14:13:47.609Z,95.18
2022-11-22T14:16:45.137Z,95.13
2022-11-22T14:19:19.967Z,95.31
2022-11-22T14:21:49.903Z,95.22
2022-11-22T14:24:50.600Z,95.12
2022-11-22T14:27:29.469Z,95.11
2022-11-22T14:30:12.997Z,95.18
2022-11-22T14:32:54.187Z,95.31
2022-11-22T14:35:35.107Z,95.44
2022-11-22T14:38:10.036Z,95.39
2022-11-22T14:40:37.786Z,95.59
2022-11-22T14:43:17.090Z,95.53
2022-11-22T14:45:48.586Z,95.63
2022-11-22T14:48:20.801Z,95.51
2022-11-22T14:50:54.919Z,95.79
2022-11-22T14:53:36.877Z,95.85
2022-11-22T14:56:07.347Z,95.95
2022-11-22T14:58:39.108Z,95.83
2022-11-22T15:01:30.708Z,95.92
2022-11-22T15:09:23.226Z,96.00
2022-11-22T15:09:23.872Z,96.07
2022-11-22T15:10:22.779Z,96.19
2022-11-22T15:13:19.610Z,95.97
2022-11-22T15:59:41.142Z,96.30
2022-11-22T16:02:15.021Z,96.54
2022-11-22T16:04:48.382Z,96.46
2022-11-22T16:07:35.154Z,96.54
2022-11-22T16:10:06.105Z,96.54
2022-11-22T16:12:36.777Z,96.49
2022-11-22T16:15:27.081Z,96.63
2022-11-22T16:18:05.461Z,96.60
2022-11-22T16:20:33.658Z,96.87
2022-11-22T16:23:04.614Z,96.66
2022-11-22T16:25:33.106Z,96.82
2022-11-22T16:28:03.492Z,96.75
2022-11-22T16:30:30.110Z,96.87
2022-11-22T16:32:58.520Z,96.70
2022-11-22T16:35:29.805Z,96.82
2022-11-22T16:37:56.767Z,96.79
2022-11-22T16:40:23.465Z,97.01
2022-11-22T16:42:50.037Z,96.97
2022-11-22T16:45:19.751Z,96.87
2022-11-22T16:47:54.621Z,96.84
2022-11-22T16:50:33.872Z,96.92
2022-11-22T16:53:02.916Z,97.04
2022-11-22T16:55:29.693Z,97.08
2022-11-22T16:57:56.486Z,96.97
2022-11-22T17:00:23.000Z,97.04
2022-11-22T17:02:49.588Z,96.99
2022-11-22T17:05:17.444Z,96.82
2022-11-22T17:07:44.076Z,96.99
2022-11-22T17:10:10.794Z,97.03
2022-11-22T17:12:37.400Z,97.09
2022-11-22T17:15:04.284Z,96.95
2022-11-22T17:17:30.832Z,96.87
2022-11-22T17:19:58.062Z,97.06
2022-11-22T17:22:25.085Z,97.07
2022-11-22T17:24:51.669Z,96.88
2022-11-22T17:27:18.330Z,97.02
2022-11-22T17:29:52.143Z,97.21
2022-11-22T17:32:19.319Z,97.23
2022-11-22T17:34:45.955Z,97.10
2022-11-22T17:37:13.097Z,97.34
2022-11-22T17:39:40.166Z,97.20
2022-11-22T17:42:06.833Z,97.09
2022-11-22T17:44:34.064Z,97.36
2022-11-22T17:47:01.220Z,97.40
2022-11-22T17:49:28.525Z,97.42
2022-11-22T17:51:55.338Z,97.41
2022-11-22T17:54:22.039Z,97.34
2022-11-22T17:56:48.911Z,97.10
2022-11-22T17:59:15.484Z,96.87
2022-11-22T18:01:43.166Z,96.98
2022-11-22T18:04:10.224Z,97.06
2022-11-22T18:06:36.757Z,97.21
2022-11-22T18:09:03.554Z,97.17
2022-11-22T18:11:30.160Z,97.09
2022-11-22T18:13:56.994Z,97.26
2022-11-22T18:16:28.325Z,97.03
2022-11-22T18:18:57.876Z,96.95
2022-11-22T18:21:26.468Z,96.78
2022-11-22T18:23:53.286Z,96.85
2022-11-22T18:31:54.600Z,96.92
2022-11-22T18:34:22.668Z,96.97
2022-11-22T18:37:01.306Z,96.95
2022-11-22T18:39:38.010Z,97.19
2022-11-22T18:42:12.983Z,97.01
2022-11-22T18:44:39.615Z,96.91
2022-11-22T18:47:06.623Z,97.14
2022-11-22T18:49:33.716Z,97.00
2022-11-22T18:52:00.752Z,97.15
2022-11-22T18:54:27.285Z,96.99
2022-11-22T18:56:54.005Z,96.89
2022-11-22T18:59:20.513Z,97.07
2022-11-22T19:01:47.143Z,97.23
2022-11-22T19:04:15.073Z,97.03
2022-11-22T19:06:42.450Z,97.05
2022-11-22T19:09:09.652Z,97.11
2022-11-22T19:11:36.361Z,97.02
2022-11-22T19:14:03.891Z,97.02
2022-11-22T19:16:31.468Z,96.99
2022-11-22T19:18:58.983Z,97.08
2022-11-22T19:21:27.808Z,97.17
2022-11-22T19:23:55.565Z,97.17
2022-11-22T19:26:24.380Z,97.21
2022-11-22T19:28:56.266Z,97.13
2022-11-22T19:31:25.884Z,97.43
2022-11-22T19:33:52.580Z,97.40
2022-11-22T19:36:29.164Z,97.41
2022-11-22T19:38:59.414Z,97.61
2022-11-22T19:41:26.677Z,97.61
2022-11-22T19:43:53.354Z,97.69
2022-11-22T19:46:20.052Z,97.20
2022-11-22T19:48:54.366Z,97.14
2022-11-22T19:51:22.252Z,97.03
2022-11-22T19:53:48.995Z,97.33
2022-11-22T19:56:19.553Z,97.30
2022-11-22T19:58:51.229Z,97.22
2022-11-22T20:01:18.742Z,97.14
2022-11-22T20:03:46.383Z,97.25
2022-11-22T20:06:14.185Z,97.32
2022-11-22T20:08:41.502Z,97.23
2022-11-22T20:11:16.558Z,97.22
2022-11-22T20:13:45.681Z,97.10
2022-11-22T20:16:20.979Z,97.16
2022-11-22T20:18:48.579Z,97.26
2022-11-22T20:21:20.531Z,97.27
2022-11-22T20:23:50.276Z,97.18
2022-11-22T20:26:17.801Z,97.24
2022-11-22T20:28:46.459Z,97.54
2022-11-22T20:31:16.034Z,97.48
2022-11-22T20:33:45.718Z,97.48
2022-11-22T20:36:14.993Z,97.32
2022-11-22T20:38:43.325Z,97.45
2022-11-22T20:41:11.816Z,97.54
2022-11-22T20:43:38.758Z,97.56
2022-11-22T20:46:08.472Z,98.07
2022-11-22T20:48:36.653Z,98.05
2022-11-22T20:51:05.740Z,97.81
2022-11-22T20:53:33.103Z,97.70
2022-11-22T20:55:59.772Z,97.60
2022-11-22T20:58:26.668Z,97.60
2022-11-22T21:00:53.830Z,97.72
2022-11-22T21:03:20.792Z,98.02
2022-11-22T21:05:51.603Z,97.66
2022-11-22T21:08:18.863Z,97.73
2022-11-22T21:10:45.671Z,97.73
2022-11-22T21:13:12.236Z,97.67
2022-11-22T21:15:38.777Z,98.02
2022-11-22T21:18:28.170Z,98.07
2022-11-22T21:20:52.453Z,98.01
2022-11-22T21:23:19.066Z,97.89
2022-11-22T21:25:46.550Z,97.60
2022-11-22T21:28:13.381Z,97.50
2022-11-22T21:30:40.131Z,97.50
2022-11-22T21:33:06.662Z,97.54
2022-11-22T21:35:33.213Z,97.53
2022-11-22T21:37:59.726Z,97.84
2022-11-22T21:40:26.440Z,97.80
2022-11-22T21:42:53.520Z,98.03
2022-11-22T21:45:20.253Z,98.03
2022-11-22T21:47:49.624Z,98.03
2022-11-22T21:50:16.690Z,98.12
2022-11-22T21:52:43.260Z,98.02
2022-11-22T21:55:11.671Z,98.20
2022-11-22T21:57:38.334Z,98.33
2022-11-22T22:00:05.751Z,98.36
2022-11-22T22:02:32.869Z,98.35
2022-11-22T22:04:59.628Z,97.73
2022-11-22T22:10:14.497Z,98.07
2022-11-22T22:12:41.285Z,97.79
2022-11-22T22:15:10.638Z,98.10
2022-11-22T22:17:37.146Z,97.97
2022-11-22T22:20:04.279Z,97.84
2022-11-22T22:22:30.808Z,97.90
2022-11-22T22:24:57.333Z,97.97
2022-11-22T22:27:23.935Z,97.86
2022-11-22T22:29:50.514Z,97.70
2022-11-22T22:32:17.089Z,97.68
2022-11-22T22:34:43.639Z,97.69
2022-11-22T22:37:10.175Z,98.15
2022-11-22T22:39:36.669Z,98.13
2022-11-22T22:42:03.363Z,97.93
2022-11-22T22:44:30.047Z,97.71
2022-11-22T22:46:56.624Z,97.70
2022-11-22T22:49:23.194Z,97.74
2022-11-22T22:51:51.403Z,97.88
2022-11-22T22:54:17.867Z,97.88
2022-11-22T22:56:44.609Z,97.85
2022-11-22T22:59:11.088Z,97.85
2022-11-22T23:01:37.705Z,97.89
2022-11-22T23:04:04.542Z,97.73
2022-11-22T23:06:35.983Z,97.66
2022-11-22T23:09:05.062Z,97.73
2022-11-22T23:11:51.332Z,97.66
2022-11-22T23:14:26.739Z,97.71
2022-11-22T23:16:57.655Z,97.76
2022-11-22T23:19:25.225Z,97.71
2022-11-22T23:21:51.965Z,97.76
2022-11-22T23:24:18.793Z,97.84
2022-11-22T23:26:45.386Z,98.05
2022-11-22T23:29:12.582Z,97.96
2022-11-22T23:31:39.138Z,98.36
2022-11-22T23:34:05.750Z,98.81
2022-11-22T23:36:35.956Z,98.93
2022-11-22T23:39:04.245Z,98.71
2022-11-22T23:41:30.781Z,98.63
2022-11-22T23:43:57.437Z,98.36
2022-11-22T23:46:27.414Z,98.08
2022-11-22T23:48:59.354Z,97.96
2022-11-22T23:51:27.505Z,97.87
2022-11-22T23:53:59.499Z,97.96
2022-11-22T23:56:27.584Z,98.16
2022-11-22T23:58:54.765Z,98.29
